Lafayette, Colorado
Current Conditions -  °F | °C
As of 8:35 AM on Saturday 22 Nov 2014 (Local Time) from KEIK Reporting Station
Clear Clear  
Wind Chill: 43°   Ceiling: Unl
Heat Index: 46°   Visibility: 10mi
Dew Point: 22°   Wind: 5mph
Humidity: 40%   Direction: 10°N
Pressure: 29.73"   Gusts: NA
Location:  39.99°N, 105.09°W
Report Text: KEIK 221535Z AUTO 01004KT 10SM CLR 08/M05 A2973 RMK AO2 T00761054
Loading
Personal Weather Stations






























Interactive Weather Map New forecast layout! Learn more

10-Day Weather Forecast

Advertisements
Track Severe Weather on mobile